sensor_id;sensor_type;location;lat;lon;timestamp;pressure;altitude;pressure_sealevel;temperature;humidity
29903;BME280;30288;50.514;9.678;2023-04-26T00:00:36;98787.84;;;2.17;100.00
29903;BME280;30288;50.514;9.678;2023-04-26T00:02:46;98791.00;;;1.95;100.00
29903;BME280;30288;50.514;9.678;2023-04-26T00:04:55;98790.91;;;1.83;100.00
29903;BME280;30288;50.514;9.678;2023-04-26T00:07:04;98797.72;;;2.08;100.00
29903;BME280;30288;50.514;9.678;2023-04-26T00:09:09;98791.03;;;2.01;100.00
29903;BME280;30288;50.514;9.678;2023-04-26T00:11:14;98784.44;;;2.06;100.00
29903;BME280;30288;50.514;9.678;2023-04-26T00:13:20;98787.63;;;1.87;100.00
29903;BME280;30288;50.514;9.678;2023-04-26T00:15:25;98797.47;;;1.77;100.00
29903;BME280;30288;50.514;9.678;2023-04-26T00:17:31;98794.16;;;1.75;100.00
29903;BME280;30288;50.514;9.678;2023-04-26T00:19:36;98790.81;;;1.70;100.00
29903;BME280;30288;50.514;9.678;2023-04-26T00:21:44;98798.06;;;1.52;100.00
29903;BME280;30288;50.514;9.678;2023-04-26T00:23:50;98795.72;;;1.64;100.00
29903;BME280;30288;50.514;9.678;2023-04-26T00:25:56;98794.81;;;1.55;100.00
29903;BME280;30288;50.514;9.678;2023-04-26T00:28:01;98796.34;;;1.44;100.00
29903;BME280;30288;50.514;9.678;2023-04-26T00:30:08;98798.88;;;1.48;100.00
29903;BME280;30288;50.514;9.678;2023-04-26T00:32:14;98792.94;;;1.31;100.00
29903;BME280;30288;50.514;9.678;2023-04-26T00:34:21;98793.72;;;1.27;100.00
29903;BME280;30288;50.514;9.678;2023-04-26T00:36:26;98795.41;;;1.28;100.00
29903;BME280;30288;50.514;9.678;2023-04-26T00:38:35;98791.97;;;1.17;100.00
29903;BME280;30288;50.514;9.678;2023-04-26T00:40:40;98794.31;;;1.06;100.00
29903;BME280;30288;50.514;9.678;2023-04-26T00:42:45;98793.44;;;1.00;100.00
29903;BME280;30288;50.514;9.678;2023-04-26T00:44:51;98800.75;;;0.89;100.00
29903;BME280;30288;50.514;9.678;2023-04-26T00:46:59;98798.19;;;0.83;100.00
29903;BME280;30288;50.514;9.678;2023-04-26T00:49:05;98798.28;;;0.91;100.00
29903;BME280;30288;50.514;9.678;2023-04-26T00:51:14;98788.34;;;0.87;100.00
29903;BME280;30288;50.514;9.678;2023-04-26T00:53:20;98796.47;;;0.77;100.00
29903;BME280;30288;50.514;9.678;2023-04-26T00:55:29;98797.28;;;0.75;100.00
29903;BME280;30288;50.514;9.678;2023-04-26T00:57:34;98798.94;;;0.74;100.00
29903;BME280;30288;50.514;9.678;2023-04-26T00:59:40;98793.09;;;0.72;100.00
29903;BME280;30288;50.514;9.678;2023-04-26T01:01:46;98801.44;;;0.77;100.00
29903;BME280;30288;50.514;9.678;2023-04-26T01:03:51;98799.72;;;0.70;100.00
29903;BME280;30288;50.514;9.678;2023-04-26T01:05:57;98803.03;;;0.72;100.00
29903;BME280;30288;50.514;9.678;2023-04-26T01:08:03;98802.16;;;0.69;100.00
29903;BME280;30288;50.514;9.678;2023-04-26T01:10:10;98815.13;;;0.50;100.00
29903;BME280;30288;50.514;9.678;2023-04-26T01:12:18;98805.22;;;0.50;100.00
29903;BME280;30288;50.514;9.678;2023-04-26T01:14:25;98803.47;;;0.44;100.00
29903;BME280;30288;50.514;9.678;2023-04-26T01:16:30;98805.81;;;0.32;100.00
29903;BME280;30288;50.514;9.678;2023-04-26T01:18:36;98809.75;;;0.21;100.00
29903;BME280;30288;50.514;9.678;2023-04-26T01:20:42;98803.06;;;0.14;100.00
29903;BME280;30288;50.514;9.678;2023-04-26T01:22:52;98807.28;;;0.21;100.00
29903;BME280;30288;50.514;9.678;2023-04-26T01:24:57;98807.47;;;0.33;100.00
29903;BME280;30288;50.514;9.678;2023-04-26T01:27:03;98814.69;;;0.19;100.00
29903;BME280;30288;50.514;9.678;2023-04-26T01:29:16;98810.44;;;0.09;100.00
29903;BME280;30288;50.514;9.678;2023-04-26T01:31:22;98809.69;;;0.16;100.00
29903;BME280;30288;50.514;9.678;2023-04-26T01:33:27;98807.41;;;0.30;100.00
29903;BME280;30288;50.514;9.678;2023-04-26T01:35:32;98812.13;;;0.12;100.00
29903;BME280;30288;50.514;9.678;2023-04-26T01:37:38;98808.75;;;0.08;100.00
29903;BME280;30288;50.514;9.678;2023-04-26T01:39:46;98810.28;;;-0.02;100.00
29903;BME280;30288;50.514;9.678;2023-04-26T01:41:55;98806.22;;;0.05;100.00
29903;BME280;30288;50.514;9.678;2023-04-26T01:44:06;98810.38;;;0.05;100.00
29903;BME280;30288;50.514;9.678;2023-04-26T01:46:11;98803.50;;;-0.12;100.00
29903;BME280;30288;50.514;9.678;2023-04-26T01:48:16;98806.66;;;-0.22;100.00
29903;BME280;30288;50.514;9.678;2023-04-26T01:50:22;98811.44;;;-0.31;100.00
29903;BME280;30288;50.514;9.678;2023-04-26T01:52:28;98812.16;;;-0.38;100.00
29903;BME280;30288;50.514;9.678;2023-04-26T01:54:33;98807.88;;;-0.47;100.00
29903;BME280;30288;50.514;9.678;2023-04-26T01:56:41;98808.59;;;-0.52;100.00
29903;BME280;30288;50.514;9.678;2023-04-26T01:58:47;98808.84;;;-0.40;100.00
29903;BME280;30288;50.514;9.678;2023-04-26T02:00:52;98808.78;;;-0.43;100.00
29903;BME280;30288;50.514;9.678;2023-04-26T02:02:57;98804.78;;;-0.35;100.00
29903;BME280;30288;50.514;9.678;2023-04-26T02:05:05;98799.84;;;-0.35;100.00
29903;BME280;30288;50.514;9.678;2023-04-26T02:07:11;98804.84;;;-0.32;100.00
29903;BME280;30288;50.514;9.678;2023-04-26T02:09:19;98799.88;;;-0.32;100.00
29903;BME280;30288;50.514;9.678;2023-04-26T02:11:25;98803.84;;;-0.41;100.00
29903;BME280;30288;50.514;9.678;2023-04-26T02:13:34;98800.31;;;-0.57;100.00
29903;BME280;30288;50.514;9.678;2023-04-26T02:15:40;98801.25;;;-0.49;100.00
29903;BME280;30288;50.514;9.678;2023-04-26T02:17:45;98800.31;;;-0.56;100.00
29903;BME280;30288;50.514;9.678;2023-04-26T02:19:50;98801.81;;;-0.64;100.00
29903;BME280;30288;50.514;9.678;2023-04-26T02:21:57;98815.53;;;-0.79;100.00
29903;BME280;30288;50.514;9.678;2023-04-26T02:24:04;98808.09;;;-0.82;100.00
29903;BME280;30288;50.514;9.678;2023-04-26T02:26:09;98805.13;;;-0.63;100.00
29903;BME280;30288;50.514;9.678;2023-04-26T02:28:17;98807.53;;;-0.68;100.00
29903;BME280;30288;50.514;9.678;2023-04-26T02:30:25;98804.19;;;-0.71;100.00
29903;BME280;30288;50.514;9.678;2023-04-26T02:32:30;98807.81;;;-0.51;100.00
29903;BME280;30288;50.514;9.678;2023-04-26T02:34:36;98800.94;;;-0.67;100.00
29903;BME280;30288;50.514;9.678;2023-04-26T02:36:42;98804.22;;;-0.68;100.00
29903;BME280;30288;50.514;9.678;2023-04-26T02:38:48;98806.47;;;-0.80;100.00
29903;BME280;30288;50.514;9.678;2023-04-26T02:40:57;98810.47;;;-0.87;100.00
29903;BME280;30288;50.514;9.678;2023-04-26T02:43:04;98803.91;;;-0.86;100.00
29903;BME280;30288;50.514;9.678;2023-04-26T02:45:13;98808.72;;;-0.93;100.00
29903;BME280;30288;50.514;9.678;2023-04-26T02:47:20;98810.09;;;-1.07;100.00
29903;BME280;30288;50.514;9.678;2023-04-26T02:49:26;98815.09;;;-1.04;100.00
29903;BME280;30288;50.514;9.678;2023-04-26T02:51:31;98809.34;;;-1.03;100.00
29903;BME280;30288;50.514;9.678;2023-04-26T02:53:36;98816.72;;;-1.06;100.00
29903;BME280;30288;50.514;9.678;2023-04-26T02:55:42;98808.41;;;-1.08;100.00
29903;BME280;30288;50.514;9.678;2023-04-26T02:57:47;98809.34;;;-1.03;100.00
29903;BME280;30288;50.514;9.678;2023-04-26T02:59:53;98809.22;;;-1.09;100.00
29903;BME280;30288;50.514;9.678;2023-04-26T03:01:58;98805.88;;;-1.12;100.00
29903;BME280;30288;50.514;9.678;2023-04-26T03:04:07;98812.00;;;-0.94;100.00
29903;BME280;30288;50.514;9.678;2023-04-26T03:06:13;98811.19;;;-0.93;100.00
29903;BME280;30288;50.514;9.678;2023-04-26T03:08:18;98813.66;;;-0.93;100.00
29903;BME280;30288;50.514;9.678;2023-04-26T03:10:24;98817.06;;;-0.88;100.00
29903;BME280;30288;50.514;9.678;2023-04-26T03:12:30;98808.66;;;-0.96;100.00
29903;BME280;30288;50.514;9.678;2023-04-26T03:14:36;98812.53;;;-1.10;100.00
29903;BME280;30288;50.514;9.678;2023-04-26T03:16:43;98813.06;;;-1.23;100.00
29903;BME280;30288;50.514;9.678;2023-04-26T03:18:49;98814.31;;;-1.01;100.00
29903;BME280;30288;50.514;9.678;2023-04-26T03:20:58;98814.16;;;-1.10;100.00
29903;BME280;30288;50.514;9.678;2023-04-26T03:23:04;98818.44;;;-1.02;100.00
29903;BME280;30288;50.514;9.678;2023-04-26T03:25:10;98819.53;;;-0.88;100.00
29903;BME280;30288;50.514;9.678;2023-04-26T03:27:20;98818.56;;;-0.96;100.00
29903;BME280;30288;50.514;9.678;2023-04-26T03:29:25;98820.56;;;-0.76;100.00
29903;BME280;30288;50.514;9.678;2023-04-26T03:31:30;98822.13;;;-0.81;100.00
29903;BME280;30288;50.514;9.678;2023-04-26T03:33:36;98821.75;;;-1.01;100.00
29903;BME280;30288;50.514;9.678;2023-04-26T03:35:42;98818.44;;;-1.02;100.00
29903;BME280;30288;50.514;9.678;2023-04-26T03:37:50;98818.59;;;-0.93;100.00
29903;BME280;30288;50.514;9.678;2023-04-26T03:39:59;98815.16;;;-1.01;100.00
29903;BME280;30288;50.514;9.678;2023-04-26T03:42:07;98811.88;;;-1.00;100.00
29903;BME280;30288;50.514;9.678;2023-04-26T03:44:13;98813.66;;;-0.93;100.00
29903;BME280;30288;50.514;9.678;2023-04-26T03:46:19;98808.66;;;-0.96;100.00
29903;BME280;30288;50.514;9.678;2023-04-26T03:48:24;98805.19;;;-1.04;100.00
29903;BME280;30288;50.514;9.678;2023-04-26T03:50:29;98816.75;;;-1.03;100.00
29903;BME280;30288;50.514;9.678;2023-04-26T03:52:35;98808.25;;;-1.17;100.00
29903;BME280;30288;50.514;9.678;2023-04-26T03:54:43;98818.78;;;-1.25;100.00
29903;BME280;30288;50.514;9.678;2023-04-26T03:56:48;98821.88;;;-1.36;100.00
29903;BME280;30288;50.514;9.678;2023-04-26T03:58:54;98826.03;;;-1.33;100.00
29903;BME280;30288;50.514;9.678;2023-04-26T04:01:01;98827.66;;;-1.35;100.00
29903;BME280;30288;50.514;9.678;2023-04-26T04:03:06;98821.22;;;-1.27;100.00
29903;BME280;30288;50.514;9.678;2023-04-26T04:05:12;98816.53;;;-1.15;100.00
29903;BME280;30288;50.514;9.678;2023-04-26T04:07:17;98808.25;;;-1.17;100.00
29903;BME280;30288;50.514;9.678;2023-04-26T04:09:23;98821.34;;;-1.21;100.00
29903;BME280;30288;50.514;9.678;2023-04-26T04:11:31;98827.09;;;-1.22;100.00
29903;BME280;30288;50.514;9.678;2023-04-26T04:13:36;98828.63;;;-0.86;100.00
29903;BME280;30288;50.514;9.678;2023-04-26T04:15:41;98821.75;;;-1.00;100.00
29903;BME280;30288;50.514;9.678;2023-04-26T04:17:48;98828.16;;;-1.09;100.00
29903;BME280;30288;50.514;9.678;2023-04-26T04:19:53;98827.59;;;-0.96;100.00
29903;BME280;30288;50.514;9.678;2023-04-26T04:21:58;98821.88;;;-0.94;100.00
29903;BME280;30288;50.514;9.678;2023-04-26T04:24:04;98820.91;;;-1.02;100.00
29903;BME280;30288;50.514;9.678;2023-04-26T04:26:09;98824.97;;;-1.04;100.00
29903;BME280;30288;50.514;9.678;2023-04-26T04:28:18;98829.06;;;-1.04;100.00
29903;BME280;30288;50.514;9.678;2023-04-26T04:30:26;98838.78;;;-1.15;100.00
29903;BME280;30288;50.514;9.678;2023-04-26T04:32:31;98839.56;;;-1.16;100.00
29903;BME280;30288;50.514;9.678;2023-04-26T04:34:37;98843.84;;;-1.07;100.00
29903;BME280;30288;50.514;9.678;2023-04-26T04:36:43;98844.75;;;-1.04;100.00
29903;BME280;30288;50.514;9.678;2023-04-26T04:38:49;98843.81;;;-1.09;100.00
29903;BME280;30288;50.514;9.678;2023-04-26T04:40:59;98845.44;;;-1.11;100.00
29903;BME280;30288;50.514;9.678;2023-04-26T04:43:04;98855.22;;;-1.15;100.00
29903;BME280;30288;50.514;9.678;2023-04-26T04:45:13;98852.66;;;-1.20;100.00
29903;BME280;30288;50.514;9.678;2023-04-26T04:47:19;98855.28;;;-1.12;100.00
29903;BME280;30288;50.514;9.678;2023-04-26T04:49:26;98846.47;;;-1.00;100.00
29903;BME280;30288;50.514;9.678;2023-04-26T04:51:32;98847.28;;;-1.01;100.00
29903;BME280;30288;50.514;9.678;2023-04-26T04:53:38;98856.47;;;-0.94;100.00
29903;BME280;30288;50.514;9.678;2023-04-26T04:55:43;98849.22;;;-0.86;100.00
29903;BME280;30288;50.514;9.678;2023-04-26T04:57:51;98854.34;;;-0.75;100.00
29903;BME280;30288;50.514;9.678;2023-04-26T04:59:57;98860.28;;;-0.66;100.00
29903;BME280;30288;50.514;9.678;2023-04-26T05:02:22;98856.28;;;-0.61;100.00
29903;BME280;30288;50.514;9.678;2023-04-26T05:04:28;98853.41;;;-0.37;100.00
29903;BME280;30288;50.514;9.678;2023-04-26T05:06:36;98859.16;;;-0.38;100.00
29903;BME280;30288;50.514;9.678;2023-04-26T05:08:42;98854.38;;;-0.29;100.00
29903;BME280;30288;50.514;9.678;2023-04-26T05:10:47;98857.66;;;-0.30;100.00
29903;BME280;30288;50.514;9.678;2023-04-26T05:12:53;98862.59;;;-0.30;100.00
29903;BME280;30288;50.514;9.678;2023-04-26T05:14:59;98863.59;;;-0.20;100.00
29903;BME280;30288;50.514;9.678;2023-04-26T05:17:05;98865.19;;;-0.22;100.00
29903;BME280;30288;50.514;9.678;2023-04-26T05:19:14;98871.94;;;-0.14;100.00
29903;BME280;30288;50.514;9.678;2023-04-26T05:21:21;98871.28;;;-0.05;100.00
29903;BME280;30288;50.514;9.678;2023-04-26T05:23:27;98870.56;;;0.02;100.00
29903;BME280;30288;50.514;9.678;2023-04-26T05:25:36;98868.28;;;0.16;100.00
29903;BME280;30288;50.514;9.678;2023-04-26T05:28:02;98872.44;;;0.17;100.00
29903;BME280;30288;50.514;9.678;2023-04-26T05:30:32;98865.19;;;0.29;100.00
29903;BME280;30288;50.514;9.678;2023-04-26T05:32:58;98873.53;;;0.34;100.00
29903;BME280;30288;50.514;9.678;2023-04-26T05:35:11;98876.06;;;0.37;100.00
29903;BME280;30288;50.514;9.678;2023-04-26T05:37:16;98872.13;;;0.51;100.00
29903;BME280;30288;50.514;9.678;2023-04-26T05:39:21;98882.09;;;0.57;100.00
29903;BME280;30288;50.514;9.678;2023-04-26T05:41:27;98885.47;;;0.59;100.00
29903;BME280;30288;50.514;9.678;2023-04-26T05:43:32;98883.88;;;0.64;100.00
29903;BME280;30288;50.514;9.678;2023-04-26T05:45:49;98887.38;;;0.78;100.00
29903;BME280;30288;50.514;9.678;2023-04-26T05:47:54;98884.94;;;0.83;100.00
29903;BME280;30288;50.514;9.678;2023-04-26T05:49:59;98891.72;;;0.96;100.00
29903;BME280;30288;50.514;9.678;2023-04-26T05:52:09;98886.03;;;1.05;100.00
29903;BME280;30288;50.514;9.678;2023-04-26T05:54:15;98897.72;;;1.12;100.00
29903;BME280;30288;50.514;9.678;2023-04-26T05:56:23;98887.94;;;1.24;100.00
29903;BME280;30288;50.514;9.678;2023-04-26T05:58:29;98891.34;;;1.33;100.00
29903;BME280;30288;50.514;9.678;2023-04-26T06:00:37;98894.00;;;1.49;100.00
29903;BME280;30288;50.514;9.678;2023-04-26T06:02:42;98891.63;;;1.56;100.00
29903;BME280;30288;50.514;9.678;2023-04-26T06:04:51;98891.78;;;1.74;100.00
29903;BME280;30288;50.514;9.678;2023-04-26T06:06:57;98893.56;;;1.85;100.00
29903;BME280;30288;50.514;9.678;2023-04-26T06:09:05;98901.91;;;1.96;100.00
29903;BME280;30288;50.514;9.678;2023-04-26T06:11:11;98902.81;;;2.05;100.00
29903;BME280;30288;50.514;9.678;2023-04-26T06:13:17;98900.47;;;2.17;100.00
29903;BME280;30288;50.514;9.678;2023-04-26T06:15:22;98902.22;;;2.32;100.00
29903;BME280;30288;50.514;9.678;2023-04-26T06:17:29;98900.63;;;2.40;100.00
29903;BME280;30288;50.514;9.678;2023-04-26T06:19:35;98897.44;;;2.56;100.00
29903;BME280;30288;50.514;9.678;2023-04-26T06:21:40;98899.16;;;2.70;100.00
29903;BME280;30288;50.514;9.678;2023-04-26T06:23:48;98892.63;;;2.87;100.00
29903;BME280;30288;50.514;9.678;2023-04-26T06:25:58;98900.97;;;2.98;100.00
29903;BME280;30288;50.514;9.678;2023-04-26T06:28:04;98898.53;;;3.07;100.00
29903;BME280;30288;50.514;9.678;2023-04-26T06:30:10;98904.41;;;3.21;100.00
29903;BME280;30288;50.514;9.678;2023-04-26T06:32:18;98904.44;;;3.35;100.00
29903;BME280;30288;50.514;9.678;2023-04-26T06:34:24;98902.00;;;3.50;100.00
29903;BME280;30288;50.514;9.678;2023-04-26T06:36:30;98906.19;;;3.63;100.00
29903;BME280;30288;50.514;9.678;2023-04-26T06:38:36;98898.75;;;3.77;100.00
29903;BME280;30288;50.514;9.678;2023-04-26T06:40:44;98910.41;;;3.96;100.00
29903;BME280;30288;50.514;9.678;2023-04-26T06:42:53;98914.56;;;4.18;100.00
29903;BME280;30288;50.514;9.678;2023-04-26T06:45:19;98907.94;;;4.38;100.00
29903;BME280;30288;50.514;9.678;2023-04-26T06:47:25;98919.56;;;4.49;100.00
29903;BME280;30288;50.514;9.678;2023-04-26T06:49:32;98912.91;;;4.60;100.00
29903;BME280;30288;50.514;9.678;2023-04-26T06:51:40;98911.22;;;4.77;100.00
29903;BME280;30288;50.514;9.678;2023-04-26T06:53:45;98913.66;;;4.97;100.00
29903;BME280;30288;50.514;9.678;2023-04-26T06:55:51;98904.47;;;5.12;100.00
29903;BME280;30288;50.514;9.678;2023-04-26T06:58:02;98909.44;;;5.21;100.00
29903;BME280;30288;50.514;9.678;2023-04-26T07:00:11;98904.31;;;5.49;100.00
29903;BME280;30288;50.514;9.678;2023-04-26T07:02:17;98901.69;;;5.71;100.00
29903;BME280;30288;50.514;9.678;2023-04-26T07:04:24;98904.16;;;5.76;100.00
29903;BME280;30288;50.514;9.678;2023-04-26T07:06:30;98902.47;;;5.75;100.00
29903;BME280;30288;50.514;9.678;2023-04-26T07:08:35;98906.59;;;5.90;100.00
29903;BME280;30288;50.514;9.678;2023-04-26T07:10:41;98909.06;;;5.97;100.00
29903;BME280;30288;50.514;9.678;2023-04-26T07:12:47;98909.75;;;6.18;100.00
29903;BME280;30288;50.514;9.678;2023-04-26T07:14:55;98906.16;;;6.50;100.00
29903;BME280;30288;50.514;9.678;2023-04-26T07:17:02;98906.91;;;6.60;100.00
29903;BME280;30288;50.514;9.678;2023-04-26T07:19:07;98911.81;;;6.66;100.00
29903;BME280;30288;50.514;9.678;2023-04-26T07:21:13;98905.19;;;6.65;100.00
29903;BME280;30288;50.514;9.678;2023-04-26T07:23:18;98899.25;;;6.74;100.00
29903;BME280;30288;50.514;9.678;2023-04-26T07:25:24;98899.00;;;6.95;100.00
29903;BME280;30288;50.514;9.678;2023-04-26T07:27:29;98897.28;;;6.98;100.00
29903;BME280;30288;50.514;9.678;2023-04-26T07:29:34;98901.19;;;7.27;100.00
29903;BME280;30288;50.514;9.678;2023-04-26T07:31:42;98892.59;;;7.43;100.00
29903;BME280;30288;50.514;9.678;2023-04-26T07:33:47;98907.56;;;7.49;100.00
29903;BME280;30288;50.514;9.678;2023-04-26T07:35:54;98895.81;;;7.54;100.00
29903;BME280;30288;50.514;9.678;2023-04-26T07:38:01;98891.69;;;7.48;100.00
29903;BME280;30288;50.514;9.678;2023-04-26T07:40:09;98892.41;;;7.58;100.00
29903;BME280;30288;50.514;9.678;2023-04-26T07:42:14;98885.59;;;7.66;100.00
29903;BME280;30288;50.514;9.678;2023-04-26T07:44:19;98897.09;;;7.82;100.00
29903;BME280;30288;50.514;9.678;2023-04-26T07:46:25;98899.34;;;7.99;100.00
29903;BME280;30288;50.514;9.678;2023-04-26T07:48:32;98904.41;;;7.98;100.00
29903;BME280;30288;50.514;9.678;2023-04-26T07:50:38;98886.78;;;8.01;100.00
29903;BME280;30288;50.514;9.678;2023-04-26T07:52:43;98888.09;;;8.23;100.00
29903;BME280;30288;50.514;9.678;2023-04-26T07:54:48;98884.28;;;8.54;100.00
29903;BME280;30288;50.514;9.678;2023-04-26T07:56:53;98884.09;;;8.63;100.00
29903;BME280;30288;50.514;9.678;2023-04-26T07:58:58;98885.19;;;8.50;100.00
29903;BME280;30288;50.514;9.678;2023-04-26T08:01:05;98885.06;;;8.56;100.00
29903;BME280;30288;50.514;9.678;2023-04-26T08:03:13;98887.38;;;8.68;100.00
29903;BME280;30288;50.514;9.678;2023-04-26T08:05:22;98893.31;;;8.64;100.00
29903;BME280;30288;50.514;9.678;2023-04-26T08:07:27;98883.59;;;8.91;100.00
29903;BME280;30288;50.514;9.678;2023-04-26T08:09:32;98886.50;;;9.14;100.00
29903;BME280;30288;50.514;9.678;2023-04-26T08:11:37;98875.94;;;9.38;100.00
29903;BME280;30288;50.514;9.678;2023-04-26T08:13:43;98880.38;;;9.65;100.00
29903;BME280;30288;50.514;9.678;2023-04-26T08:15:48;98876.47;;;9.91;100.00
29903;BME280;30288;50.514;9.678;2023-04-26T08:17:54;98873.53;;;10.44;100.00
29903;BME280;30288;50.514;9.678;2023-04-26T08:19:59;98883.19;;;10.60;100.00
29903;BME280;30288;50.514;9.678;2023-04-26T08:22:08;98873.53;;;10.44;100.00
29903;BME280;30288;50.514;9.678;2023-04-26T08:24:13;98869.19;;;10.14;100.00
29903;BME280;30288;50.514;9.678;2023-04-26T08:26:18;98875.19;;;10.10;100.00
29903;BME280;30288;50.514;9.678;2023-04-26T08:28:24;98875.97;;;10.12;100.00
29903;BME280;30288;50.514;9.678;2023-04-26T08:30:29;98882.19;;;10.33;100.00
29903;BME280;30288;50.514;9.678;2023-04-26T08:32:34;98875.97;;;10.47;100.00
29903;BME280;30288;50.514;9.678;2023-04-26T08:34:39;98874.53;;;10.70;100.00
29903;BME280;30288;50.514;9.678;2023-04-26T08:36:45;98878.94;;;11.23;100.00
29903;BME280;30288;50.514;9.678;2023-04-26T08:38:52;98869.91;;;11.46;100.00
29903;BME280;30288;50.514;9.678;2023-04-26T08:40:59;98869.13;;;11.71;100.00
29903;BME280;30288;50.514;9.678;2023-04-26T08:43:05;98884.38;;;11.68;100.00
29903;BME280;30288;50.514;9.678;2023-04-26T08:45:14;98867.38;;;11.46;100.00
29903;BME280;30288;50.514;9.678;2023-04-26T08:47:28;98869.56;;;11.28;100.00
29903;BME280;30288;50.514;9.678;2023-04-26T08:49:40;98865.13;;;11.36;100.00
29903;BME280;30288;50.514;9.678;2023-04-26T08:51:46;98877.16;;;11.27;100.00
29903;BME280;30288;50.514;9.678;2023-04-26T08:53:55;98880.78;;;10.55;100.00
29903;BME280;30288;50.514;9.678;2023-04-26T08:56:05;98883.59;;;10.44;100.00
29903;BME280;30288;50.514;9.678;2023-04-26T08:58:12;98877.59;;;10.16;100.00
29903;BME280;30288;50.514;9.678;2023-04-26T09:00:18;98884.69;;;10.67;100.00
29903;BME280;30288;50.514;9.678;2023-04-26T09:02:24;98880.63;;;10.93;100.00
29903;BME280;30288;50.514;9.678;2023-04-26T09:04:30;98876.75;;;10.82;100.00
29903;BME280;30288;50.514;9.678;2023-04-26T09:06:36;98865.94;;;10.78;99.91
29903;BME280;30288;50.514;9.678;2023-04-26T09:08:42;98873.38;;;11.12;100.00
29903;BME280;30288;50.514;9.678;2023-04-26T09:10:50;98861.41;;;11.50;96.59
29903;BME280;30288;50.514;9.678;2023-04-26T09:12:57;98867.06;;;12.37;100.00
29903;BME280;30288;50.514;9.678;2023-04-26T09:15:04;98867.28;;;11.78;91.27
29903;BME280;30288;50.514;9.678;2023-04-26T09:17:25;98855.59;;;12.53;91.10
29903;BME280;30288;50.514;9.678;2023-04-26T09:19:34;98853.22;;;12.23;87.30
29903;BME280;30288;50.514;9.678;2023-04-26T09:21:42;98862.66;;;11.92;90.25
29903;BME280;30288;50.514;9.678;2023-04-26T09:23:57;98857.13;;;11.52;92.73
29903;BME280;30288;50.514;9.678;2023-04-26T09:26:18;98863.88;;;11.22;97.45
29903;BME280;30288;50.514;9.678;2023-04-26T09:28:24;98861.03;;;11.32;99.19
29903;BME280;30288;50.514;9.678;2023-04-26T09:30:35;98863.22;;;11.15;93.08
29903;BME280;30288;50.514;9.678;2023-04-26T09:32:52;98857.19;;;10.90;83.95
29903;BME280;30288;50.514;9.678;2023-04-26T09:34:57;98856.13;;;10.98;83.07
29903;BME280;30288;50.514;9.678;2023-04-26T09:37:02;98857.56;;;10.78;84.20
29903;BME280;30288;50.514;9.678;2023-04-26T09:39:08;98847.25;;;10.85;82.28
29903;BME280;30288;50.514;9.678;2023-04-26T09:41:17;98851.66;;;11.08;84.95
29903;BME280;30288;50.514;9.678;2023-04-26T09:43:22;98847.66;;;11.30;84.33
29903;BME280;30288;50.514;9.678;2023-04-26T09:45:30;98847.19;;;11.46;96.38
29903;BME280;30288;50.514;9.678;2023-04-26T09:47:35;98852.63;;;12.15;94.51
29903;BME280;30288;50.514;9.678;2023-04-26T09:49:46;98850.19;;;12.12;100.00
29903;BME280;30288;50.514;9.678;2023-04-26T09:52:02;98851.78;;;12.66;95.15
29903;BME280;30288;50.514;9.678;2023-04-26T09:54:08;98848.56;;;12.61;87.59
29903;BME280;30288;50.514;9.678;2023-04-26T09:56:18;98852.59;;;12.42;81.94
29903;BME280;30288;50.514;9.678;2023-04-26T09:58:24;98849.63;;;12.31;85.49
29903;BME280;30288;50.514;9.678;2023-04-26T10:00:29;98853.31;;;12.20;87.23
29903;BME280;30288;50.514;9.678;2023-04-26T10:02:36;98855.47;;;12.06;90.22
29903;BME280;30288;50.514;9.678;2023-04-26T10:04:44;98851.06;;;12.38;92.52
29903;BME280;30288;50.514;9.678;2023-04-26T10:06:50;98841.59;;;12.44;81.58
29903;BME280;30288;50.514;9.678;2023-04-26T10:08:56;98836.47;;;12.94;77.27
29903;BME280;30288;50.514;9.678;2023-04-26T10:11:03;98850.19;;;12.12;80.62
29903;BME280;30288;50.514;9.678;2023-04-26T10:13:11;98852.28;;;12.51;84.39
29903;BME280;30288;50.514;9.678;2023-04-26T10:15:18;98845.19;;;12.85;87.50
29903;BME280;30288;50.514;9.678;2023-04-26T10:17:23;98849.06;;;12.95;81.87
29903;BME280;30288;50.514;9.678;2023-04-26T10:19:29;98836.44;;;13.40;80.68
29903;BME280;30288;50.514;9.678;2023-04-26T10:21:36;98835.56;;;13.41;75.22
29903;BME280;30288;50.514;9.678;2023-04-26T10:23:44;98828.81;;;13.42;73.75
29903;BME280;30288;50.514;9.678;2023-04-26T10:25:49;98843.78;;;13.01;80.50
29903;BME280;30288;50.514;9.678;2023-04-26T10:27:54;98838.09;;;13.41;77.40
29903;BME280;30288;50.514;9.678;2023-04-26T10:30:10;98832.84;;;13.89;79.92
29903;BME280;30288;50.514;9.678;2023-04-26T10:32:16;98842.53;;;13.58;79.24
29903;BME280;30288;50.514;9.678;2023-04-26T10:34:21;98834.34;;;13.51;79.95
29903;BME280;30288;50.514;9.678;2023-04-26T10:36:27;98836.94;;;13.50;83.80
29903;BME280;30288;50.514;9.678;2023-04-26T10:38:35;98835.38;;;13.24;81.09
29903;BME280;30288;50.514;9.678;2023-04-26T10:40:41;98825.63;;;13.15;73.65
29903;BME280;30288;50.514;9.678;2023-04-26T10:42:47;98830.47;;;13.43;77.27
29903;BME280;30288;50.514;9.678;2023-04-26T10:44:53;98819.88;;;13.55;75.60
29903;BME280;30288;50.514;9.678;2023-04-26T10:47:01;98823.91;;;13.16;70.11
29903;BME280;30288;50.514;9.678;2023-04-26T10:49:16;98836.56;;;12.43;71.84
29903;BME280;30288;50.514;9.678;2023-04-26T10:51:27;98834.22;;;12.12;74.46
29903;BME280;30288;50.514;9.678;2023-04-26T10:53:57;98836.69;;;12.13;80.50
29903;BME280;30288;50.514;9.678;2023-04-26T10:56:03;98835.75;;;11.91;75.67
29903;BME280;30288;50.514;9.678;2023-04-26T10:58:25;98833.81;;;11.99;70.40
29903;BME280;30288;50.514;9.678;2023-04-26T11:00:34;98817.22;;;12.42;72.09
29903;BME280;30288;50.514;9.678;2023-04-26T11:02:53;98822.78;;;12.76;81.48
29903;BME280;30288;50.514;9.678;2023-04-26T11:05:01;98811.34;;;12.66;72.00
29903;BME280;30288;50.514;9.678;2023-04-26T11:07:08;98811.03;;;12.50;74.23
29903;BME280;30288;50.514;9.678;2023-04-26T11:09:35;98813.78;;;12.92;76.78